Weather at Presbyterian Hospital Heliport

Public forecast

Using degrees Fahrenheit for public forecast. Weather courtesy of forecast.io.

Closest aviation weather report (METAR) to Presbyterian Hospital Heliport

Closest report is Albuquerque International Sunport, 2.8 nm (5.2 km) SSE.

2024/07/19 07:52 (retrieved 26 minutes ago)

KABQ 190752Z 18006KT 10SM FEW070 FEW110 BKN150 BKN190 21/14 A3035 RMK AO2 SLP188 T02060139

Closest aviation forecast (TAF) to Presbyterian Hospital Heliport

Closest forecast is Albuquerque International Sunport, 2.8 nm (5.2 km) SSE.

2024/07/19 06:30 (retrieved 2 hours ago)

TAF KABQ 190527Z 1906/2006 VRB06KT P6SM SCT100 FM200000 09020G35KT P6SM VCTS BKN090CB FM200400 12010KT P6SM BKN090